4O4

Mc Curtain County Regional Airport

Idabel, Oklahoma, USA
METAR K4O4 181715Z AUTO 00000KT 10SM SCT047 SCT060 35/18 A2999 RMK AO2
Observed Flight Rules
Sep-18 @ 17:15 UTC (17 minutes ago) Visual Flight Rules
Visibility Clouds
10 miles
  • Scattered at 4,700' AGL
  • Scattered at 6,000' AGL
Temperatures Readings
Current 35°C / 95°F
Dewpoint 18°C / 64°F
Humidity 36%
Altimeter 29.99" Hg
Pressure 1016 hPa
Elevation 144
METAR K4O4 181715Z AUTO 00000KT 10SM SCT047 SCT060 35/18 A2999 RMK AO2
Observed Flight Rules
Sep-18 @ 17:15 UTC
(17 minutes ago)
VFR
Clouds
  • Scattered at 4,700' AGL
  • Scattered at 6,000' AGL
Temperature Dewpoint
35°C / 95°F 18°C / 64°F
Humidity Altimeter Pressure
36% 29.99" Hg 1016 hPa